Time;durP1;ratioP1;P1;durP2;ratioP2;P2;SDS_P1;SDS_P2;PMS_P1;PMS_P2;Temp;Humidity;BMP_temperature;BMP_pressure;BME280_temperature;BME280_humidity;BME280_pressure;Samples;Min_cycle;Max_cycle;Signal;HPM_P1;HPM_P2
2022/06/20 00:02:24;;;;;;;8.03;4.70;;;24.80;60.40;;;;;;5053644;28;20492;-46
2022/06/20 00:04:54;;;;;;;7.43;4.50;;;24.70;60.50;;;;;;5056126;28;21117;-46
2022/06/20 00:07:22;;;;;;;5.30;4.70;;;24.70;60.70;;;;;;5045839;28;20480;-46
2022/06/20 00:09:49;;;;;;;6.37;4.47;;;24.70;60.70;;;;;;5060372;28;20456;-46
2022/06/20 00:12:20;;;;;;;7.50;4.70;;;24.70;60.70;;;;;;5054080;28;20459;-46
2022/06/20 00:14:50;;;;;;;8.37;5.10;;;24.60;60.80;;;;;;5062839;28;20473;-46
2022/06/20 00:17:17;;;;;;;7.60;4.67;;;24.60;60.80;;;;;;5043441;28;20545;-46
2022/06/20 00:19:45;;;;;;;7.93;4.63;;;24.60;61.00;;;;;;5048424;28;20504;-46
2022/06/20 00:22:11;;;;;;;7.43;4.63;;;24.60;61.00;;;;;;5046443;28;20826;-46
2022/06/20 00:24:39;;;;;;;7.80;4.80;;;24.50;61.10;;;;;;5041247;28;20485;-46
2022/06/20 00:27:06;;;;;;;7.63;4.63;;;24.50;61.20;;;;;;5060416;28;20462;-46
2022/06/20 00:29:38;;;;;;;8.23;5.20;;;24.50;61.20;;;;;;5057388;28;20450;-46
2022/06/20 00:32:06;;;;;;;10.33;4.77;;;24.50;61.00;;;;;;5060731;28;20551;-46
2022/06/20 00:34:33;;;;;;;7.83;5.13;;;24.50;60.90;;;;;;5057385;28;20828;-46
2022/06/20 00:37:00;;;;;;;7.00;4.50;;;24.50;60.70;;;;;;5044172;28;20551;-46
2022/06/20 00:39:27;;;;;;;8.50;4.80;;;24.50;60.80;;;;;;5040951;28;20953;-46
2022/06/20 00:41:55;;;;;;;9.33;4.73;;;24.50;60.70;;;;;;5062548;28;20441;-47
2022/06/20 00:44:27;;;;;;;7.87;4.50;;;24.40;60.70;;;;;;5020464;28;20858;-46
2022/06/20 00:47:03;;;;;;;9.40;5.20;;;24.40;60.80;;;;;;5052431;28;20515;-46
2022/06/20 00:49:38;;;;;;;10.10;4.20;;;24.30;60.90;;;;;;5055361;28;20503;-47
2022/06/20 00:52:32;;;;;;;10.90;4.77;;;24.30;60.90;;;;;;5039075;28;20457;-47
2022/06/20 00:55:14;;;;;;;8.90;5.23;;;24.30;60.90;;;;;;5052138;28;20572;-46
2022/06/20 00:57:51;;;;;;;7.70;4.60;;;24.30;61.10;;;;;;5051462;28;20465;-46
2022/06/20 01:00:24;;;;;;;6.30;5.23;;;24.30;61.10;;;;;;5038761;28;20475;-47
2022/06/20 01:03:01;;;;;;;7.60;4.70;;;24.20;60.90;;;;;;5040073;28;20472;-46
2022/06/20 01:05:34;;;;;;;8.20;5.33;;;24.20;60.80;;;;;;5060133;28;20498;-46
2022/06/20 01:08:12;;;;;;;9.70;4.60;;;24.10;61.00;;;;;;5060503;28;20453;-46
2022/06/20 01:10:47;;;;;;;5.00;3.87;;;24.10;61.30;;;;;;5046408;28;20558;-46
2022/06/20 01:13:17;;;;;;;9.67;5.03;;;24.10;61.10;;;;;;5056138;28;20540;-47
2022/06/20 01:15:46;;;;;;;6.70;4.40;;;24.00;61.20;;;;;;5047804;28;21271;-47
2022/06/20 01:18:26;;;;;;;11.13;4.80;;;24.00;61.50;;;;;;5032279;28;20461;-47
2022/06/20 01:20:56;;;;;;;6.03;4.03;;;24.00;61.40;;;;;;5055553;28;20458;-46
2022/06/20 01:23:47;;;;;;;7.23;3.80;;;24.00;61.60;;;;;;5051457;28;20475;-46
2022/06/20 01:26:38;;;;;;;4.90;4.40;;;24.00;61.70;;;;;;5054167;28;20545;-46
2022/06/20 01:29:08;;;;;;;6.30;4.27;;;23.90;62.20;;;;;;5053212;28;20568;-46
2022/06/20 01:31:52;;;;;;;8.47;3.70;;;23.70;61.90;;;;;;5042830;28;20460;-46
2022/06/20 01:34:19;;;;;;;9.40;3.73;;;23.60;61.20;;;;;;5055929;28;20490;-46
2022/06/20 01:39:41;;;;;;;7.77;3.90;;;23.20;61.70;;;;;;5059951;28;20484;-46
2022/06/20 01:42:19;;;;;;;9.17;3.60;;;23.10;61.90;;;;;;5048267;28;20457;-47
2022/06/20 01:45:03;;;;;;;9.80;3.77;;;23.00;61.80;;;;;;5044006;28;20491;-46
2022/06/20 01:47:32;;;;;;;18.83;5.80;;;22.90;62.20;;;;;;5036009;28;20456;-46
2022/06/20 01:50:06;;;;;;;9.53;3.47;;;22.70;62.10;;;;;;5043685;28;20470;-46
2022/06/20 01:52:43;;;;;;;19.03;4.90;;;22.60;61.70;;;;;;5056374;28;21336;-46
2022/06/20 01:55:12;;;;;;;10.50;3.83;;;22.40;61.90;;;;;;5059717;28;20556;-46
2022/06/20 01:57:43;;;;;;;6.30;3.17;;;22.20;62.00;;;;;;5061032;28;20544;-46
2022/06/20 02:00:11;;;;;;;3.93;2.70;;;22.00;62.60;;;;;;5058256;28;20841;-46
2022/06/20 02:02:48;;;;;;;6.80;3.40;;;21.90;63.00;;;;;;5059206;28;20457;-46
2022/06/20 02:05:24;;;;;;;6.80;2.97;;;21.80;63.30;;;;;;5049776;28;20482;-46
2022/06/20 02:07:51;;;;;;;7.40;3.30;;;21.80;63.30;;;;;;5061359;28;20458;-46
2022/06/20 02:10:25;;;;;;;6.23;3.43;;;21.80;63.20;;;;;;5058389;28;20457;-46
2022/06/20 02:12:53;;;;;;;5.80;3.13;;;21.80;63.30;;;;;;5061638;28;20552;-45
2022/06/20 02:15:21;;;;;;;6.80;3.80;;;21.80;63.40;;;;;;5036990;28;20462;-45
2022/06/20 02:17:50;;;;;;;8.23;3.67;;;21.80;63.40;;;;;;5055818;28;20946;-46
2022/06/20 02:20:21;;;;;;;5.30;3.33;;;21.90;63.30;;;;;;5053681;28;20450;-45
2022/06/20 02:22:50;;;;;;;3.87;3.33;;;21.90;63.30;;;;;;5056966;28;20465;-45
2022/06/20 02:25:23;;;;;;;6.03;3.40;;;21.90;63.40;;;;;;5032770;28;21483;-45
2022/06/20 02:28:04;;;;;;;4.37;3.10;;;21.90;63.30;;;;;;5056850;28;20954;-45
2022/06/20 02:30:31;;;;;;;8.47;3.50;;;22.00;63.30;;;;;;5057412;28;20453;-45
2022/06/20 02:33:09;;;;;;;6.70;4.23;;;22.00;63.50;;;;;;5043325;28;20464;-46
2022/06/20 02:35:37;;;;;;;6.27;3.40;;;22.00;63.50;;;;;;5055083;28;20468;-45
2022/06/20 02:38:04;;;;;;;8.80;4.37;;;22.10;63.20;;;;;;5052886;28;21289;-46
2022/06/20 02:40:32;;;;;;;5.37;2.87;;;22.20;62.90;;;;;;5057817;28;20554;-46
2022/06/20 02:43:34;;;;;;;6.63;3.50;;;22.30;62.80;;;;;;5045201;28;20461;-46
2022/06/20 02:46:03;;;;;;;10.30;3.30;;;22.30;62.60;;;;;;5057767;28;20489;-45
2022/06/20 02:48:33;;;;;;;6.77;3.53;;;22.40;62.50;;;;;;5061403;28;20961;-45
2022/06/20 02:51:06;;;;;;;5.57;4.00;;;22.40;62.40;;;;;;5064656;28;20461;-46
2022/06/20 02:53:41;;;;;;;5.97;2.80;;;22.50;62.30;;;;;;5044179;28;20457;-45
2022/06/20 02:56:12;;;;;;;7.43;3.13;;;22.50;62.20;;;;;;5057323;28;20466;-45
2022/06/20 02:58:42;;;;;;;4.70;3.37;;;22.60;62.00;;;;;;5035992;28;20466;-45
2022/06/20 03:01:32;;;;;;;5.03;3.10;;;22.60;62.20;;;;;;5037522;28;21052;-45
2022/06/20 03:03:59;;;;;;;7.00;3.20;;;22.60;62.00;;;;;;5052277;28;20564;-45
2022/06/20 03:06:32;;;;;;;6.00;3.77;;;22.70;61.60;;;;;;5051084;28;20485;-45
2022/06/20 03:08:59;;;;;;;8.73;3.80;;;22.70;61.60;;;;;;5029489;28;20823;-45
2022/06/20 03:11:31;;;;;;;6.97;3.13;;;22.70;61.60;;;;;;5043779;28;20457;-45
2022/06/20 03:14:01;;;;;;;10.23;3.90;;;22.70;61.40;;;;;;5062488;28;20456;-45
2022/06/20 03:16:28;;;;;;;10.20;5.27;;;22.70;61.40;;;;;;5058461;28;20457;-45
2022/06/20 03:18:58;;;;;;;4.47;3.07;;;22.80;61.40;;;;;;5059740;28;20485;-45
2022/06/20 03:21:31;;;;;;;8.57;3.50;;;22.70;61.40;;;;;;5058058;28;20954;-48
2022/06/20 03:23:57;;;;;;;6.77;2.93;;;22.70;61.50;;;;;;5059529;28;20465;-45
2022/06/20 03:26:26;;;;;;;6.60;2.90;;;22.70;61.50;;;;;;5062219;28;20491;-45
2022/06/20 03:28:54;;;;;;;3.60;2.93;;;22.70;61.50;;;;;;5057263;28;20545;-45
2022/06/20 03:31:21;;;;;;;4.10;2.80;;;22.70;61.50;;;;;;5043647;28;20493;-45
2022/06/20 03:33:48;;;;;;;8.40;3.70;;;22.60;61.50;;;;;;5056241;28;20461;-45
2022/06/20 03:36:20;;;;;;;6.07;3.20;;;22.60;61.80;;;;;;5046760;28;21017;-45
2022/06/20 03:38:49;;;;;;;6.33;2.80;;;22.60;62.20;;;;;;5060350;28;20584;-45
2022/06/20 03:41:21;;;;;;;7.20;3.00;;;22.60;61.80;;;;;;5056680;28;21053;-45
2022/06/20 03:43:59;;;;;;;5.00;3.30;;;22.60;61.70;;;;;;5057279;28;21340;-45
2022/06/20 03:46:37;;;;;;;8.40;3.10;;;22.60;61.70;;;;;;5059009;28;20527;-45
2022/06/20 03:49:21;;;;;;;6.10;3.50;;;22.70;61.50;;;;;;5057209;28;20538;-45
2022/06/20 03:52:00;;;;;;;5.77;2.90;;;22.70;61.50;;;;;;5061260;28;20960;-45
2022/06/20 03:54:50;;;;;;;8.87;3.63;;;22.70;61.50;;;;;;5047451;28;20548;-45
2022/06/20 03:57:49;;;;;;;7.60;3.70;;;22.70;61.40;;;;;;5044609;28;20465;-45
2022/06/20 04:00:22;;;;;;;5.83;3.27;;;22.70;61.60;;;;;;5058421;28;20495;-45
2022/06/20 04:03:04;;;;;;;9.90;4.00;;;22.70;61.60;;;;;;5057534;28;20895;-45
2022/06/20 04:05:39;;;;;;;6.43;3.80;;;22.70;61.60;;;;;;5041726;28;21058;-45
2022/06/20 04:08:23;;;;;;;8.93;3.57;;;22.70;61.70;;;;;;5060420;28;20446;-45
2022/06/20 04:10:58;;;;;;;8.30;3.53;;;22.70;61.60;;;;;;5058413;28;20977;-45
2022/06/20 04:13:28;;;;;;;5.63;3.57;;;22.70;61.60;;;;;;5058487;28;20464;-45
2022/06/20 04:16:29;;;;;;;8.97;4.13;;;22.70;61.50;;;;;;5043665;28;20467;-45
2022/06/20 04:19:14;;;;;;;4.80;4.03;;;22.70;61.70;;;;;;5055661;28;20471;-45
2022/06/20 04:21:46;;;;;;;6.40;4.13;;;22.70;61.80;;;;;;5054440;28;20878;-45
2022/06/20 04:24:21;;;;;;;6.57;3.63;;;22.70;61.80;;;;;;5055688;28;20522;-45
2022/06/20 04:27:07;;;;;;;7.80;3.57;;;22.60;62.00;;;;;;5052987;28;21401;-45
2022/06/20 04:29:46;;;;;;;7.90;4.23;;;22.60;61.90;;;;;;5035748;28;20452;-45
2022/06/20 04:32:38;;;;;;;8.30;3.50;;;22.70;61.70;;;;;;5041920;28;20485;-45
2022/06/20 04:35:15;;;;;;;6.57;3.90;;;22.70;61.40;;;;;;5058811;28;20461;-45
2022/06/20 04:38:20;;;;;;;5.90;4.50;;;22.60;61.90;;;;;;5053146;28;20453;-45
2022/06/20 04:41:03;;;;;;;5.27;3.73;;;22.60;62.00;;;;;;5054177;28;20481;-45
2022/06/20 04:43:43;;;;;;;5.87;3.53;;;22.50;62.10;;;;;;5042247;28;20979;-45
2022/06/20 04:46:16;;;;;;;7.23;3.40;;;22.50;62.40;;;;;;5033434;28;21029;-45
2022/06/20 04:48:46;;;;;;;8.27;3.33;;;22.50;62.30;;;;;;5049673;28;20510;-45
2022/06/20 04:51:27;;;;;;;5.80;3.37;;;22.50;62.30;;;;;;5057585;28;20496;-45
2022/06/20 04:53:55;;;;;;;4.10;3.20;;;22.50;62.70;;;;;;5059808;28;20982;-45
2022/06/20 04:56:28;;;;;;;6.43;3.43;;;22.60;62.80;;;;;;5053844;28;20546;-45
2022/06/20 04:59:00;;;;;;;6.93;3.60;;;22.50;63.00;;;;;;5046022;28;20450;-45
2022/06/20 05:01:31;;;;;;;7.20;3.60;;;22.50;63.10;;;;;;5041724;28;20563;-45
2022/06/20 05:04:15;;;;;;;7.67;3.57;;;22.50;63.50;;;;;;5054607;28;20528;-45
2022/06/20 05:06:42;;;;;;;7.60;2.80;;;22.50;63.40;;;;;;5042086;28;20910;-45
2022/06/20 05:09:21;;;;;;;7.50;3.33;;;22.60;63.20;;;;;;5052358;28;20989;-45
2022/06/20 05:11:52;;;;;;;7.33;3.47;;;22.60;63.10;;;;;;5050292;28;20471;-45
2022/06/20 05:14:42;;;;;;;6.20;3.50;;;22.60;63.20;;;;;;5047894;28;20457;-45
2022/06/20 05:17:17;;;;;;;8.03;3.27;;;22.60;63.40;;;;;;5049648;28;20468;-45
2022/06/20 05:19:47;;;;;;;6.73;3.30;;;22.60;63.60;;;;;;5052173;28;20535;-45
2022/06/20 05:22:26;;;;;;;4.97;3.50;;;22.50;63.80;;;;;;5057631;28;20460;-45
2022/06/20 05:24:55;;;;;;;3.40;2.80;;;22.50;64.20;;;;;;5050544;28;21120;-45
2022/06/20 05:27:28;;;;;;;8.27;3.20;;;22.50;64.40;;;;;;5039129;28;20540;-45
2022/06/20 05:30:00;;;;;;;8.00;3.60;;;22.40;64.70;;;;;;5030816;28;20538;-45
2022/06/20 05:32:40;;;;;;;6.10;3.33;;;22.40;64.80;;;;;;5038762;28;20989;-45
2022/06/20 05:35:36;;;;;;;6.37;3.43;;;22.40;64.70;;;;;;5041006;28;20570;-45
2022/06/20 05:38:34;;;;;;;5.40;2.87;;;22.50;64.80;;;;;;5036558;28;21021;-45
2022/06/20 05:41:04;;;;;;;4.97;2.60;;;22.40;64.70;;;;;;5031051;28;20466;-45
2022/06/20 05:43:31;;;;;;;7.97;3.80;;;22.40;64.90;;;;;;5063753;28;20540;-45
2022/06/20 05:46:07;;;;;;;5.07;3.00;;;22.40;64.80;;;;;;5031953;28;20494;-45
2022/06/20 05:48:55;;;;;;;3.30;2.47;;;22.40;64.80;;;;;;5036827;28;20535;-45
2022/06/20 05:51:25;;;;;;;10.97;3.63;;;22.40;64.90;;;;;;5058203;28;20457;-45
2022/06/20 05:54:09;;;;;;;4.80;2.77;;;22.40;65.00;;;;;;5059333;28;20466;-45
2022/06/20 05:56:42;;;;;;;3.43;3.10;;;22.30;65.10;;;;;;5047238;28;20527;-45
2022/06/20 05:59:26;;;;;;;8.03;3.73;;;22.30;65.10;;;;;;5064631;28;20481;-50
2022/06/20 06:01:57;;;;;;;9.87;3.50;;;22.30;65.30;;;;;;5060650;28;20504;-49
2022/06/20 06:04:37;;;;;;;5.00;3.23;;;22.30;65.20;;;;;;5034773;28;21545;-50
2022/06/20 06:07:19;;;;;;;9.53;3.40;;;22.40;65.40;;;;;;5058304;28;20477;-50
2022/06/20 06:09:59;;;;;;;5.40;3.43;;;22.40;65.20;;;;;;5061171;28;20475;-49
2022/06/20 06:12:38;;;;;;;4.00;2.70;;;22.30;65.60;;;;;;5064935;28;20453;-50
2022/06/20 06:16:46;;;;;;;4.60;3.17;;;22.40;65.30;;;;;;5060200;28;20477;-50
2022/06/20 06:18:32;;;;;;;7.70;3.33;;;22.40;65.40;;;;;;5057188;28;20462;-50
2022/06/20 06:21:00;;;;;;;9.80;4.10;;;22.30;66.00;;;;;;5038547;28;20460;-50
2022/06/20 06:23:26;;;;;;;9.10;3.90;;;22.30;67.10;;;;;;5042048;28;20691;-50
2022/06/20 06:25:53;;;;;;;8.30;3.80;;;22.40;68.70;;;;;;5061788;28;20489;-49
2022/06/20 06:28:23;;;;;;;5.40;3.50;;;22.40;69.30;;;;;;5055529;28;20545;-50
2022/06/20 06:31:12;;;;;;;5.00;3.70;;;22.30;69.50;;;;;;5057573;28;21191;-49
2022/06/20 06:33:52;;;;;;;12.43;3.23;;;22.30;69.70;;;;;;5039761;28;20461;-49
2022/06/20 06:36:42;;;;;;;6.77;3.33;;;22.30;69.70;;;;;;5063035;28;20905;-49
2022/06/20 06:39:21;;;;;;;6.40;3.67;;;22.40;69.40;;;;;;5049172;28;20474;-49
2022/06/20 06:41:53;;;;;;;4.83;3.27;;;22.40;69.20;;;;;;5042164;28;20469;-48
2022/06/20 06:44:30;;;;;;;6.00;3.20;;;22.30;69.70;;;;;;5063966;28;20548;-48
2022/06/20 06:46:57;;;;;;;5.90;3.03;;;22.40;69.00;;;;;;5047087;28;20477;-48
2022/06/20 06:49:42;;;;;;;5.10;3.43;;;22.40;68.90;;;;;;5049955;28;20524;-48
2022/06/20 06:52:19;;;;;;;7.40;3.20;;;22.30;68.70;;;;;;5054608;28;20449;-48
2022/06/20 06:54:54;;;;;;;7.43;3.40;;;22.30;68.70;;;;;;5057786;28;20497;-48
2022/06/20 06:57:38;;;;;;;4.70;3.40;;;22.30;67.90;;;;;;5057208;28;21325;-48
2022/06/20 07:00:04;;;;;;;7.10;3.30;;;22.20;68.40;;;;;;5060112;28;20469;-48
2022/06/20 07:02:39;;;;;;;4.83;3.33;;;22.20;69.00;;;;;;5062029;28;20552;-48
2022/06/20 07:05:16;;;;;;;5.37;3.60;;;22.20;69.20;;;;;;5065531;28;20457;-48
2022/06/20 07:07:50;;;;;;;4.47;3.30;;;22.10;69.30;;;;;;5062112;28;20960;-48
2022/06/20 07:10:32;;;;;;;4.00;3.67;;;22.10;69.90;;;;;;5042245;28;20510;-48
2022/06/20 07:13:18;;;;;;;4.30;2.93;;;22.10;70.00;;;;;;5062583;28;20503;-48
2022/06/20 07:15:48;;;;;;;7.13;4.37;;;22.10;69.50;;;;;;5058973;28;20468;-48
2022/06/20 07:18:38;;;;;;;5.40;4.47;;;22.20;69.50;;;;;;5062379;28;20468;-48
2022/06/20 07:21:05;;;;;;;7.47;3.73;;;22.20;69.40;;;;;;5058617;28;20497;-48
2022/06/20 07:23:32;;;;;;;4.10;3.20;;;22.20;69.40;;;;;;5060177;28;20449;-48
2022/06/20 07:25:59;;;;;;;9.70;3.90;;;22.30;69.30;;;;;;5057546;28;20926;-48
2022/06/20 07:28:48;;;;;;;12.53;5.20;;;22.30;69.10;;;;;;5058992;28;20552;-48
2022/06/20 07:31:26;;;;;;;7.00;3.03;;;22.30;69.70;;;;;;5059196;28;20457;-48
2022/06/20 07:33:59;;;;;;;6.87;4.20;;;22.30;70.00;;;;;;5065802;28;20529;-48
2022/06/20 07:36:32;;;;;;;4.33;3.20;;;22.30;69.80;;;;;;5060518;28;20457;-48
2022/06/20 07:39:04;;;;;;;7.63;3.53;;;22.40;69.50;;;;;;5037718;28;20446;-48
2022/06/20 07:41:40;;;;;;;4.40;4.00;;;22.30;69.10;;;;;;5061428;28;20506;-48
2022/06/20 07:44:12;;;;;;;5.80;3.10;;;22.30;68.60;;;;;;5037984;28;20901;-47
2022/06/20 07:46:46;;;;;;;4.20;3.30;;;22.30;68.60;;;;;;5044506;28;21009;-44
2022/06/20 07:49:23;;;;;;;4.10;3.70;;;22.30;69.40;;;;;;5050874;28;20511;-44
2022/06/20 07:51:55;;;;;;;6.27;3.70;;;22.30;69.10;;;;;;5049830;28;20453;-44
2022/06/20 07:54:27;;;;;;;6.00;3.37;;;22.40;69.20;;;;;;5041383;28;20477;-44
2022/06/20 07:57:02;;;;;;;3.97;3.20;;;22.40;69.20;;;;;;5058683;28;20498;-44
2022/06/20 07:59:42;;;;;;;6.77;3.50;;;22.40;69.50;;;;;;5054131;28;20992;-44
2022/06/20 08:02:26;;;;;;;6.70;3.17;;;22.30;69.60;;;;;;5051297;28;20480;-44
2022/06/20 08:04:58;;;;;;;3.77;3.47;;;22.30;70.20;;;;;;5053077;28;20466;-44
2022/06/20 08:07:30;;;;;;;5.93;3.63;;;22.10;71.40;;;;;;5040801;28;20489;-44
2022/06/20 08:10:15;;;;;;;3.47;3.00;;;22.00;71.60;;;;;;5042289;28;20482;-44
2022/06/20 08:13:01;;;;;;;4.27;2.67;;;22.00;72.00;;;;;;5046557;28;21020;-47
2022/06/20 08:16:02;;;;;;;2.80;2.60;;;21.90;72.10;;;;;;5055963;28;21045;-45
2022/06/20 08:18:30;;;;;;;5.20;2.60;;;21.90;72.10;;;;;;5049231;28;20991;-44
2022/06/20 08:21:00;;;;;;;3.00;2.70;;;21.80;72.40;;;;;;5049012;28;20548;-45
2022/06/20 08:23:38;;;;;;;3.20;2.37;;;21.80;72.50;;;;;;5048105;28;20557;-44
2022/06/20 08:26:09;;;;;;;2.83;2.63;;;21.70;72.70;;;;;;5064762;28;20499;-44
2022/06/20 08:29:03;;;;;;;2.40;2.20;;;21.70;72.70;;;;;;5052210;28;20852;-44
2022/06/20 08:31:34;;;;;;;2.20;1.30;;;21.70;71.90;;;;;;5044928;28;20564;-44
2022/06/20 08:34:18;;;;;;;2.30;1.27;;;21.60;70.70;;;;;;5050566;28;20458;-48
2022/06/20 08:36:51;;;;;;;1.97;1.30;;;21.60;70.20;;;;;;5061940;28;20981;-44
2022/06/20 08:39:40;;;;;;;2.77;1.30;;;21.50;69.80;;;;;;5062172;28;20491;-44
2022/06/20 08:42:16;;;;;;;0.97;0.87;;;21.50;69.80;;;;;;5057037;28;20482;-47
2022/06/20 08:45:04;;;;;;;1.33;0.90;;;21.40;69.90;;;;;;5062209;28;20549;-44
2022/06/20 08:48:02;;;;;;;2.90;1.20;;;21.30;69.90;;;;;;5052112;28;20495;-44
2022/06/20 08:50:58;;;;;;;0.90;0.90;;;21.20;69.50;;;;;;5063007;28;20518;-44
2022/06/20 08:53:55;;;;;;;1.17;1.10;;;21.10;69.50;;;;;;5062184;28;20557;-44
2022/06/20 08:56:37;;;;;;;1.93;1.20;;;21.00;69.90;;;;;;5061835;28;20461;-44
2022/06/20 08:59:16;;;;;;;1.80;1.27;;;21.00;70.00;;;;;;5041724;28;20461;-43
2022/06/20 09:01:51;;;;;;;1.43;1.23;;;20.90;69.80;;;;;;5058940;28;20492;-47
2022/06/20 09:04:31;;;;;;;1.50;1.10;;;20.80;69.90;;;;;;5057932;28;20466;-47
2022/06/20 09:07:27;;;;;;;1.30;1.13;;;20.70;70.00;;;;;;5058458;28;21100;-47
2022/06/20 09:09:56;;;;;;;1.90;1.30;;;20.60;70.20;;;;;;5060077;28;20490;-43
2022/06/20 09:12:37;;;;;;;1.43;0.80;;;20.60;70.40;;;;;;5059776;28;20496;-44
2022/06/20 09:15:29;;;;;;;1.03;0.93;;;20.70;70.20;;;;;;5058792;28;20540;-44
2022/06/20 09:18:22;;;;;;;1.00;1.00;;;20.70;69.70;;;;;;5058831;28;20462;-47
2022/06/20 09:21:01;;;;;;;1.93;1.10;;;20.70;68.90;;;;;;5047464;28;20497;-47
2022/06/20 09:23:52;;;;;;;1.20;1.10;;;20.60;68.90;;;;;;5044618;28;20477;-47
2022/06/20 09:26:38;;;;;;;1.10;0.80;;;20.60;69.00;;;;;;5046869;28;20642;-47
2022/06/20 09:29:54;;;;;;;0.90;0.90;;;20.60;69.10;;;;;;5063932;28;20485;-47
2022/06/20 09:32:50;;;;;;;1.30;1.07;;;20.60;69.20;;;;;;5049245;28;20553;-47
2022/06/20 09:35:45;;;;;;;0.83;0.83;;;20.50;69.10;;;;;;5052034;28;20457;-47
2022/06/20 09:38:39;;;;;;;0.90;0.90;;;20.30;69.70;;;;;;5055968;28;20481;-47
2022/06/20 09:41:29;;;;;;;1.20;1.10;;;20.30;70.30;;;;;;5061146;28;20894;-47
2022/06/20 09:44:22;;;;;;;1.13;0.80;;;20.30;70.20;;;;;;5054273;28;20454;-47
2022/06/20 09:47:04;;;;;;;1.27;1.17;;;20.30;69.70;;;;;;5041641;28;20488;-47
2022/06/20 09:49:55;;;;;;;1.40;1.30;;;20.30;69.50;;;;;;5047608;28;20457;-47
2022/06/20 09:52:38;;;;;;;1.50;1.40;;;20.30;69.60;;;;;;5039135;28;20930;-47
2022/06/20 09:55:33;;;;;;;1.87;1.77;;;20.20;69.30;;;;;;5046966;28;20580;-47
2022/06/20 09:58:08;;;;;;;2.30;2.20;;;20.20;69.60;;;;;;5057658;28;20488;-48
2022/06/20 10:01:03;;;;;;;2.70;2.20;;;20.20;69.80;;;;;;5058912;28;20513;-47
2022/06/20 10:03:43;;;;;;;2.70;2.50;;;20.30;69.40;;;;;;5058652;28;20466;-47
2022/06/20 10:06:44;;;;;;;3.07;2.77;;;20.20;69.40;;;;;;5057187;28;20464;-47
2022/06/20 10:09:17;;;;;;;3.33;2.90;;;20.20;69.10;;;;;;5055319;28;20545;-47
2022/06/20 10:12:04;;;;;;;2.60;2.40;;;20.20;69.00;;;;;;5060855;28;21053;-47
2022/06/20 10:14:40;;;;;;;9.07;3.00;;;20.20;68.60;;;;;;5046357;28;20468;-48
2022/06/20 10:17:09;;;;;;;3.40;3.10;;;20.20;68.50;;;;;;5061866;28;20526;-48
2022/06/20 10:20:05;;;;;;;3.37;3.17;;;20.10;68.80;;;;;;5061793;28;20465;-48
2022/06/20 10:23:07;;;;;;;3.37;3.10;;;20.10;68.60;;;;;;5061763;28;20496;-48
2022/06/20 10:25:59;;;;;;;3.63;3.30;;;20.10;68.50;;;;;;5047263;28;20973;-48
2022/06/20 10:28:36;;;;;;;3.23;3.00;;;20.10;68.30;;;;;;5062192;28;20457;-48
2022/06/20 10:31:30;;;;;;;3.30;2.93;;;20.00;68.50;;;;;;5059835;28;20459;-49
2022/06/20 10:34:05;;;;;;;3.20;2.90;;;20.00;68.60;;;;;;5036141;28;20457;-47
2022/06/20 10:36:51;;;;;;;4.60;3.40;;;20.00;68.70;;;;;;5057462;28;20548;-46
2022/06/20 10:39:27;;;;;;;2.63;2.43;;;19.90;68.60;;;;;;5053934;28;20559;-47
2022/06/20 10:41:53;;;;;;;2.73;2.53;;;19.90;68.70;;;;;;5045810;28;20536;-47
2022/06/20 10:44:27;;;;;;;3.27;2.93;;;20.00;68.50;;;;;;5055596;28;20540;-47
2022/06/20 10:47:17;;;;;;;2.80;2.60;;;20.00;68.50;;;;;;5058995;28;20966;-47
2022/06/20 10:50:15;;;;;;;3.40;2.33;;;20.00;68.80;;;;;;5057819;28;20470;-47
2022/06/20 10:52:48;;;;;;;2.63;2.43;;;20.00;68.50;;;;;;5042220;28;20849;-46
2022/06/20 10:55:41;;;;;;;3.13;2.83;;;20.00;68.40;;;;;;5058230;28;20925;-46
2022/06/20 10:58:26;;;;;;;3.30;2.70;;;20.00;68.60;;;;;;5046329;28;20549;-46
2022/06/20 11:01:09;;;;;;;3.10;2.40;;;20.00;68.80;;;;;;5057386;28;20485;-47
2022/06/20 11:04:00;;;;;;;2.20;2.07;;;19.90;68.50;;;;;;5060880;28;20497;-47
2022/06/20 11:06:36;;;;;;;2.40;2.20;;;19.90;68.70;;;;;;5055540;28;20573;-48
2022/06/20 11:09:14;;;;;;;2.40;2.10;;;19.90;68.70;;;;;;5059274;28;20545;-48
2022/06/20 11:11:49;;;;;;;2.60;1.97;;;19.90;68.80;;;;;;5056674;28;21252;-48
2022/06/20 11:14:56;;;;;;;3.90;2.60;;;19.90;68.70;;;;;;5055418;28;20462;-48
2022/06/20 11:17:32;;;;;;;1.80;1.70;;;19.90;68.80;;;;;;5054873;28;20576;-48
2022/06/20 11:20:24;;;;;;;1.60;1.50;;;19.90;69.10;;;;;;5055723;28;20900;-47
2022/06/20 11:23:19;;;;;;;1.87;1.70;;;19.90;69.20;;;;;;5061427;28;20545;-47
2022/06/20 11:26:11;;;;;;;1.77;1.67;;;19.80;69.40;;;;;;5058864;28;20465;-48
2022/06/20 11:28:56;;;;;;;4.13;1.67;;;19.80;69.40;;;;;;5044909;28;20540;-48
2022/06/20 11:31:37;;;;;;;1.50;1.40;;;19.80;69.30;;;;;;5053629;28;20476;-48
2022/06/20 11:34:49;;;;;;;3.60;1.40;;;19.70;67.80;;;;;;5033719;28;20458;-48
2022/06/20 11:37:47;;;;;;;2.10;1.27;;;19.70;67.90;;;;;;5043820;28;20545;-48
2022/06/20 11:40:34;;;;;;;1.33;1.23;;;19.60;68.00;;;;;;5059515;28;20466;-48
2022/06/20 11:43:25;;;;;;;1.23;1.00;;;19.60;67.90;;;;;;5060484;28;20488;-48
2022/06/20 11:46:04;;;;;;;1.93;1.43;;;19.60;67.80;;;;;;5062643;28;20485;-48
2022/06/20 11:48:46;;;;;;;1.57;1.20;;;19.60;67.50;;;;;;5058630;28;20590;-48
2022/06/20 11:51:34;;;;;;;0.77;0.77;;;19.60;67.10;;;;;;5058867;28;20973;-48
2022/06/20 11:54:01;;;;;;;1.40;1.00;;;19.60;66.90;;;;;;5057875;28;20992;-48
2022/06/20 11:56:50;;;;;;;1.50;1.07;;;19.60;67.40;;;;;;5056531;28;20984;-48
2022/06/20 11:59:47;;;;;;;1.30;1.20;;;19.50;67.60;;;;;;5041811;28;20445;-47
2022/06/20 12:02:26;;;;;;;1.23;1.07;;;19.50;67.00;;;;;;5060947;28;20849;-48
2022/06/20 12:04:59;;;;;;;1.70;1.00;;;19.50;67.00;;;;;;5058385;28;21006;-47
2022/06/20 12:08:23;;;;;;;1.40;1.30;;;19.50;67.10;;;;;;5040664;28;21069;-49
2022/06/20 12:11:15;;;;;;;3.67;1.10;;;19.50;66.40;;;;;;5052582;28;20951;-47
2022/06/20 12:13:54;;;;;;;0.70;0.70;;;19.50;66.70;;;;;;5060223;28;20458;-47
2022/06/20 12:16:47;;;;;;;1.10;0.90;;;19.50;66.80;;;;;;5062917;28;20894;-47
2022/06/20 12:25:43;;;;;;;1.00;0.73;;;19.70;64.90;;;;;;5058095;28;20894;-47
2022/06/20 12:28:21;;;;;;;0.70;0.70;;;19.80;64.60;;;;;;5060864;28;20497;-47
2022/06/20 12:30:53;;;;;;;1.30;0.90;;;19.80;64.30;;;;;;5062202;28;20459;-47
2022/06/20 12:33:21;;;;;;;1.43;0.90;;;19.80;63.40;;;;;;5057589;28;20496;-47
2022/06/20 12:35:52;;;;;;;1.53;0.90;;;19.80;63.40;;;;;;5055268;28;20885;-47
2022/06/20 12:38:33;;;;;;;1.23;0.83;;;19.90;63.00;;;;;;5062346;28;20526;-47
2022/06/20 12:41:05;;;;;;;2.10;1.23;;;19.90;62.80;;;;;;5055567;28;21022;-48
2022/06/20 12:43:40;;;;;;;2.00;1.10;;;19.90;63.00;;;;;;5059817;28;20540;-47
2022/06/20 12:46:16;;;;;;;0.90;0.70;;;19.80;63.70;;;;;;5049721;28;20827;-47
2022/06/20 12:48:49;;;;;;;1.03;0.97;;;19.80;62.60;;;;;;5055687;28;20493;-47
2022/06/20 12:51:25;;;;;;;1.27;0.77;;;19.80;62.00;;;;;;5054035;28;20489;-47
2022/06/20 12:54:18;;;;;;;0.70;0.60;;;19.70;61.70;;;;;;5060189;28;20461;-47
2022/06/20 12:56:54;;;;;;;1.43;0.60;;;19.70;61.40;;;;;;5051973;28;20489;-47
2022/06/20 12:59:36;;;;;;;1.73;1.63;;;19.60;61.50;;;;;;5044798;28;20575;-47
2022/06/20 13:02:37;;;;;;;0.93;0.40;;;19.60;62.00;;;;;;5039537;28;20914;-47
2022/06/20 13:05:26;;;;;;;1.13;0.40;;;19.60;61.20;;;;;;5061653;28;20533;-47
2022/06/20 13:08:35;;;;;;;0.60;0.60;;;19.60;61.40;;;;;;5063702;28;21214;-47
2022/06/20 13:11:40;;;;;;;0.50;0.50;;;19.70;62.20;;;;;;4964981;28;21009;-47
2022/06/20 13:14:07;;;;;;;0.60;0.60;;;19.70;62.40;;;;;;5057482;28;20457;-47
2022/06/20 13:16:37;;;;;;;0.50;0.40;;;19.70;61.70;;;;;;5059598;28;21123;-47
2022/06/20 13:19:14;;;;;;;0.70;0.60;;;19.70;60.40;;;;;;5061392;28;20466;-47
2022/06/20 13:21:52;;;;;;;0.93;0.60;;;19.60;60.30;;;;;;5063260;28;20528;-47
2022/06/20 13:24:46;;;;;;;0.73;0.40;;;19.60;60.40;;;;;;5063497;28;20536;-47
2022/06/20 13:27:36;;;;;;;0.67;0.60;;;19.50;59.00;;;;;;5061179;28;20611;-47
2022/06/20 13:30:10;;;;;;;0.80;0.50;;;19.40;59.80;;;;;;5023468;28;20550;-47
2022/06/20 13:32:46;;;;;;;1.37;0.43;;;19.40;59.40;;;;;;5059101;28;20464;-47
2022/06/20 13:35:26;;;;;;;1.00;0.57;;;19.40;60.00;;;;;;5065901;28;20540;-47
2022/06/20 13:38:17;;;;;;;2.40;0.80;;;19.40;59.70;;;;;;5050918;28;20529;-47
2022/06/20 13:40:47;;;;;;;1.13;0.70;;;19.40;59.90;;;;;;5064427;28;20457;-47
2022/06/20 13:43:32;;;;;;;1.23;0.77;;;19.50;60.20;;;;;;5046782;28;20551;-47
2022/06/20 13:46:22;;;;;;;0.70;0.70;;;19.50;59.90;;;;;;5065038;28;20543;-47
2022/06/20 13:49:03;;;;;;;1.30;0.90;;;19.50;59.10;;;;;;5067142;28;20730;-47
2022/06/20 13:52:30;;;;;;;0.57;0.57;;;19.50;59.10;;;;;;5060388;28;20465;-47
2022/06/20 13:55:05;;;;;;;1.00;0.80;;;19.50;58.80;;;;;;4970498;28;20768;-47
2022/06/20 13:57:46;;;;;;;0.93;0.80;;;19.60;59.20;;;;;;4987206;28;20504;-47